sensor_id;sensor_type;location;lat;lon;timestamp;P1;durP1;ratioP1;P2;durP2;ratioP2
84666;SDS011;74896;42.518;23.712;2024-03-17T00:00:23;29.00;;;13.95;;
84666;SDS011;74896;42.518;23.712;2024-03-17T00:02:49;28.23;;;14.52;;
84666;SDS011;74896;42.518;23.712;2024-03-17T00:05:15;33.20;;;15.48;;
84666;SDS011;74896;42.518;23.712;2024-03-17T00:07:40;27.92;;;14.05;;
84666;SDS011;74896;42.518;23.712;2024-03-17T00:10:06;23.98;;;10.88;;
84666;SDS011;74896;42.518;23.712;2024-03-17T00:12:33;25.55;;;10.88;;
84666;SDS011;74896;42.518;23.712;2024-03-17T00:14:59;19.67;;;9.98;;
84666;SDS011;74896;42.518;23.712;2024-03-17T00:17:24;23.58;;;11.55;;
84666;SDS011;74896;42.518;23.712;2024-03-17T00:19:50;24.35;;;11.40;;
84666;SDS011;74896;42.518;23.712;2024-03-17T00:22:15;23.60;;;11.93;;
84666;SDS011;74896;42.518;23.712;2024-03-17T00:24:42;25.45;;;11.90;;
84666;SDS011;74896;42.518;23.712;2024-03-17T00:27:08;22.17;;;10.55;;
84666;SDS011;74896;42.518;23.712;2024-03-17T00:29:34;18.52;;;10.15;;
84666;SDS011;74896;42.518;23.712;2024-03-17T00:31:59;22.95;;;10.55;;
84666;SDS011;74896;42.518;23.712;2024-03-17T00:34:25;18.45;;;10.10;;
84666;SDS011;74896;42.518;23.712;2024-03-17T00:36:50;18.25;;;10.10;;
84666;SDS011;74896;42.518;23.712;2024-03-17T00:39:16;21.35;;;10.32;;
84666;SDS011;74896;42.518;23.712;2024-03-17T00:41:43;18.73;;;9.85;;
84666;SDS011;74896;42.518;23.712;2024-03-17T00:44:09;22.80;;;10.55;;
84666;SDS011;74896;42.518;23.712;2024-03-17T00:46:34;25.35;;;10.27;;
84666;SDS011;74896;42.518;23.712;2024-03-17T00:49:00;19.35;;;9.38;;
84666;SDS011;74896;42.518;23.712;2024-03-17T00:51:25;21.45;;;10.45;;
84666;SDS011;74896;42.518;23.712;2024-03-17T00:53:51;19.50;;;9.60;;
84666;SDS011;74896;42.518;23.712;2024-03-17T00:56:16;16.88;;;9.43;;
84666;SDS011;74896;42.518;23.712;2024-03-17T00:58:42;25.73;;;12.93;;
84666;SDS011;74896;42.518;23.712;2024-03-17T01:01:09;22.83;;;11.55;;
84666;SDS011;74896;42.518;23.712;2024-03-17T01:03:34;23.75;;;11.25;;
84666;SDS011;74896;42.518;23.712;2024-03-17T01:06:02;27.13;;;13.15;;
84666;SDS011;74896;42.518;23.712;2024-03-17T01:08:29;22.02;;;10.65;;
84666;SDS011;74896;42.518;23.712;2024-03-17T01:10:55;15.27;;;8.85;;
84666;SDS011;74896;42.518;23.712;2024-03-17T01:13:21;22.73;;;9.82;;
84666;SDS011;74896;42.518;23.712;2024-03-17T01:15:50;20.80;;;10.07;;
84666;SDS011;74896;42.518;23.712;2024-03-17T01:18:17;17.75;;;9.25;;
84666;SDS011;74896;42.518;23.712;2024-03-17T01:20:42;20.83;;;9.20;;
84666;SDS011;74896;42.518;23.712;2024-03-17T01:23:07;20.02;;;9.85;;
84666;SDS011;74896;42.518;23.712;2024-03-17T01:25:33;28.55;;;13.32;;
84666;SDS011;74896;42.518;23.712;2024-03-17T01:28:05;33.28;;;15.63;;
84666;SDS011;74896;42.518;23.712;2024-03-17T01:30:31;23.90;;;12.57;;
84666;SDS011;74896;42.518;23.712;2024-03-17T01:32:57;18.60;;;10.15;;
84666;SDS011;74896;42.518;23.712;2024-03-17T01:35:24;18.63;;;9.63;;
84666;SDS011;74896;42.518;23.712;2024-03-17T01:37:50;20.38;;;9.65;;
84666;SDS011;74896;42.518;23.712;2024-03-17T01:40:15;17.50;;;9.25;;
84666;SDS011;74896;42.518;23.712;2024-03-17T01:42:41;18.40;;;10.05;;
84666;SDS011;74896;42.518;23.712;2024-03-17T01:47:56;20.02;;;9.63;;
84666;SDS011;74896;42.518;23.712;2024-03-17T01:50:28;21.02;;;11.13;;
84666;SDS011;74896;42.518;23.712;2024-03-17T01:53:03;20.60;;;10.93;;
84666;SDS011;74896;42.518;23.712;2024-03-17T01:55:30;21.02;;;11.38;;
84666;SDS011;74896;42.518;23.712;2024-03-17T01:58:07;23.40;;;12.40;;
84666;SDS011;74896;42.518;23.712;2024-03-17T02:00:35;19.02;;;10.50;;
84666;SDS011;74896;42.518;23.712;2024-03-17T02:03:10;21.88;;;10.88;;
84666;SDS011;74896;42.518;23.712;2024-03-17T02:05:38;22.40;;;11.63;;
84666;SDS011;74896;42.518;23.712;2024-03-17T02:08:04;18.85;;;9.98;;
84666;SDS011;74896;42.518;23.712;2024-03-17T02:10:31;20.15;;;9.80;;
84666;SDS011;74896;42.518;23.712;2024-03-17T02:12:58;20.45;;;9.57;;
84666;SDS011;74896;42.518;23.712;2024-03-17T02:15:24;14.82;;;8.57;;
84666;SDS011;74896;42.518;23.712;2024-03-17T02:17:49;15.27;;;7.78;;
84666;SDS011;74896;42.518;23.712;2024-03-17T02:20:15;16.58;;;8.18;;
84666;SDS011;74896;42.518;23.712;2024-03-17T02:22:41;13.43;;;7.97;;
84666;SDS011;74896;42.518;23.712;2024-03-17T02:25:06;19.30;;;9.27;;
84666;SDS011;74896;42.518;23.712;2024-03-17T02:27:35;16.90;;;8.75;;
84666;SDS011;74896;42.518;23.712;2024-03-17T02:30:01;16.80;;;8.30;;
84666;SDS011;74896;42.518;23.712;2024-03-17T02:32:34;16.92;;;8.30;;
84666;SDS011;74896;42.518;23.712;2024-03-17T02:35:00;16.00;;;8.20;;
84666;SDS011;74896;42.518;23.712;2024-03-17T02:37:26;17.10;;;8.05;;
84666;SDS011;74896;42.518;23.712;2024-03-17T02:39:52;15.25;;;8.25;;
84666;SDS011;74896;42.518;23.712;2024-03-17T02:42:17;20.02;;;8.85;;
84666;SDS011;74896;42.518;23.712;2024-03-17T02:44:44;26.02;;;11.43;;
84666;SDS011;74896;42.518;23.712;2024-03-17T02:47:10;32.40;;;12.63;;
84666;SDS011;74896;42.518;23.712;2024-03-17T02:52:05;27.23;;;12.83;;
84666;SDS011;74896;42.518;23.712;2024-03-17T02:54:32;23.52;;;12.38;;
84666;SDS011;74896;42.518;23.712;2024-03-17T02:56:58;23.80;;;11.02;;
84666;SDS011;74896;42.518;23.712;2024-03-17T02:59:23;21.42;;;10.07;;
84666;SDS011;74896;42.518;23.712;2024-03-17T03:01:49;18.95;;;11.32;;
84666;SDS011;74896;42.518;23.712;2024-03-17T03:04:14;20.25;;;11.40;;
84666;SDS011;74896;42.518;23.712;2024-03-17T03:06:40;27.25;;;12.25;;
84666;SDS011;74896;42.518;23.712;2024-03-17T03:09:06;22.23;;;11.13;;
84666;SDS011;74896;42.518;23.712;2024-03-17T03:11:37;18.17;;;9.35;;
84666;SDS011;74896;42.518;23.712;2024-03-17T03:14:04;20.33;;;10.80;;
84666;SDS011;74896;42.518;23.712;2024-03-17T03:16:29;18.88;;;10.25;;
84666;SDS011;74896;42.518;23.712;2024-03-17T03:18:55;18.63;;;9.75;;
84666;SDS011;74896;42.518;23.712;2024-03-17T03:21:20;18.63;;;9.85;;
84666;SDS011;74896;42.518;23.712;2024-03-17T03:23:46;21.17;;;10.75;;
84666;SDS011;74896;42.518;23.712;2024-03-17T03:26:12;19.23;;;9.02;;
84666;SDS011;74896;42.518;23.712;2024-03-17T03:28:38;16.08;;;9.02;;
84666;SDS011;74896;42.518;23.712;2024-03-17T03:31:04;17.27;;;8.93;;
84666;SDS011;74896;42.518;23.712;2024-03-17T03:33:29;17.52;;;9.50;;
84666;SDS011;74896;42.518;23.712;2024-03-17T03:35:55;18.10;;;10.18;;
84666;SDS011;74896;42.518;23.712;2024-03-17T03:38:21;16.70;;;8.65;;
84666;SDS011;74896;42.518;23.712;2024-03-17T03:40:47;14.68;;;7.55;;
84666;SDS011;74896;42.518;23.712;2024-03-17T03:43:17;12.63;;;7.18;;
84666;SDS011;74896;42.518;23.712;2024-03-17T03:45:42;12.88;;;8.00;;
84666;SDS011;74896;42.518;23.712;2024-03-17T03:48:08;22.02;;;10.55;;
84666;SDS011;74896;42.518;23.712;2024-03-17T03:50:34;17.23;;;9.35;;
84666;SDS011;74896;42.518;23.712;2024-03-17T03:53:00;14.48;;;7.85;;
84666;SDS011;74896;42.518;23.712;2024-03-17T03:55:25;14.48;;;8.18;;
84666;SDS011;74896;42.518;23.712;2024-03-17T03:57:50;17.17;;;8.45;;
84666;SDS011;74896;42.518;23.712;2024-03-17T04:00:20;18.83;;;9.07;;
84666;SDS011;74896;42.518;23.712;2024-03-17T04:05:12;15.65;;;8.07;;
84666;SDS011;74896;42.518;23.712;2024-03-17T04:07:38;16.95;;;9.65;;
84666;SDS011;74896;42.518;23.712;2024-03-17T04:10:04;16.60;;;8.82;;
84666;SDS011;74896;42.518;23.712;2024-03-17T04:12:30;16.38;;;8.35;;
84666;SDS011;74896;42.518;23.712;2024-03-17T04:14:56;17.55;;;8.38;;
84666;SDS011;74896;42.518;23.712;2024-03-17T04:17:22;22.88;;;9.75;;
84666;SDS011;74896;42.518;23.712;2024-03-17T04:19:51;16.52;;;8.50;;
84666;SDS011;74896;42.518;23.712;2024-03-17T04:22:17;18.45;;;9.13;;
84666;SDS011;74896;42.518;23.712;2024-03-17T04:24:46;20.02;;;9.73;;
84666;SDS011;74896;42.518;23.712;2024-03-17T04:27:13;17.83;;;8.48;;
84666;SDS011;74896;42.518;23.712;2024-03-17T04:29:39;18.45;;;8.68;;
84666;SDS011;74896;42.518;23.712;2024-03-17T04:32:05;15.05;;;8.73;;
84666;SDS011;74896;42.518;23.712;2024-03-17T04:34:31;18.88;;;9.02;;
84666;SDS011;74896;42.518;23.712;2024-03-17T04:36:57;14.35;;;8.63;;
84666;SDS011;74896;42.518;23.712;2024-03-17T04:39:24;21.67;;;9.30;;
84666;SDS011;74896;42.518;23.712;2024-03-17T04:41:50;16.55;;;9.13;;
84666;SDS011;74896;42.518;23.712;2024-03-17T04:44:16;15.10;;;9.00;;
84666;SDS011;74896;42.518;23.712;2024-03-17T04:46:42;21.77;;;8.85;;
84666;SDS011;74896;42.518;23.712;2024-03-17T04:49:07;15.90;;;9.00;;
84666;SDS011;74896;42.518;23.712;2024-03-17T04:51:33;17.67;;;9.70;;
84666;SDS011;74896;42.518;23.712;2024-03-17T04:53:59;15.38;;;8.85;;
84666;SDS011;74896;42.518;23.712;2024-03-17T04:56:25;15.85;;;9.20;;
84666;SDS011;74896;42.518;23.712;2024-03-17T04:58:50;16.17;;;8.48;;
84666;SDS011;74896;42.518;23.712;2024-03-17T05:01:16;15.15;;;8.20;;
84666;SDS011;74896;42.518;23.712;2024-03-17T05:03:41;16.67;;;8.65;;
84666;SDS011;74896;42.518;23.712;2024-03-17T05:06:07;19.92;;;9.90;;
84666;SDS011;74896;42.518;23.712;2024-03-17T05:08:33;17.38;;;9.13;;
84666;SDS011;74896;42.518;23.712;2024-03-17T05:11:00;19.58;;;10.25;;
84666;SDS011;74896;42.518;23.712;2024-03-17T05:13:30;21.85;;;11.43;;
84666;SDS011;74896;42.518;23.712;2024-03-17T05:15:57;19.42;;;10.57;;
84666;SDS011;74896;42.518;23.712;2024-03-17T05:18:22;24.15;;;12.07;;
84666;SDS011;74896;42.518;23.712;2024-03-17T05:21:00;21.55;;;11.80;;
84666;SDS011;74896;42.518;23.712;2024-03-17T05:23:27;23.90;;;11.45;;
84666;SDS011;74896;42.518;23.712;2024-03-17T05:25:57;19.52;;;11.85;;
84666;SDS011;74896;42.518;23.712;2024-03-17T05:28:23;18.15;;;10.13;;
84666;SDS011;74896;42.518;23.712;2024-03-17T05:30:49;19.48;;;10.07;;
84666;SDS011;74896;42.518;23.712;2024-03-17T05:33:20;20.58;;;10.02;;
84666;SDS011;74896;42.518;23.712;2024-03-17T05:35:50;21.40;;;10.57;;
84666;SDS011;74896;42.518;23.712;2024-03-17T05:38:20;19.17;;;10.18;;
84666;SDS011;74896;42.518;23.712;2024-03-17T05:41:00;15.63;;;8.05;;
84666;SDS011;74896;42.518;23.712;2024-03-17T05:43:32;18.63;;;9.48;;
84666;SDS011;74896;42.518;23.712;2024-03-17T05:46:01;18.50;;;9.75;;
84666;SDS011;74896;42.518;23.712;2024-03-17T05:48:27;17.38;;;9.40;;
84666;SDS011;74896;42.518;23.712;2024-03-17T05:50:53;16.83;;;9.77;;
84666;SDS011;74896;42.518;23.712;2024-03-17T05:53:19;14.40;;;9.32;;
84666;SDS011;74896;42.518;23.712;2024-03-17T05:55:46;13.93;;;8.32;;
84666;SDS011;74896;42.518;23.712;2024-03-17T05:58:11;18.58;;;9.25;;
84666;SDS011;74896;42.518;23.712;2024-03-17T06:00:37;18.52;;;10.07;;
84666;SDS011;74896;42.518;23.712;2024-03-17T06:03:07;16.35;;;8.40;;
84666;SDS011;74896;42.518;23.712;2024-03-17T06:05:36;13.23;;;7.38;;
84666;SDS011;74896;42.518;23.712;2024-03-17T06:08:03;10.80;;;6.95;;
84666;SDS011;74896;42.518;23.712;2024-03-17T06:10:33;12.48;;;7.07;;
84666;SDS011;74896;42.518;23.712;2024-03-17T06:12:59;73.30;;;22.63;;
84666;SDS011;74896;42.518;23.712;2024-03-17T06:15:26;45.00;;;19.67;;
84666;SDS011;74896;42.518;23.712;2024-03-17T06:17:52;12.98;;;7.60;;
84666;SDS011;74896;42.518;23.712;2024-03-17T06:20:23;13.38;;;8.02;;
84666;SDS011;74896;42.518;23.712;2024-03-17T06:22:51;13.20;;;8.20;;
84666;SDS011;74896;42.518;23.712;2024-03-17T06:25:20;35.75;;;19.83;;
84666;SDS011;74896;42.518;23.712;2024-03-17T06:27:48;22.85;;;14.20;;
84666;SDS011;74896;42.518;23.712;2024-03-17T06:30:17;16.60;;;10.18;;
84666;SDS011;74896;42.518;23.712;2024-03-17T06:32:43;14.02;;;8.40;;
84666;SDS011;74896;42.518;23.712;2024-03-17T06:35:10;14.82;;;9.48;;
84666;SDS011;74896;42.518;23.712;2024-03-17T06:37:36;9.23;;;6.38;;
84666;SDS011;74896;42.518;23.712;2024-03-17T06:40:02;9.32;;;7.03;;
84666;SDS011;74896;42.518;23.712;2024-03-17T06:42:30;11.38;;;6.47;;
84666;SDS011;74896;42.518;23.712;2024-03-17T06:44:56;12.20;;;6.97;;
84666;SDS011;74896;42.518;23.712;2024-03-17T06:47:22;9.90;;;6.18;;
84666;SDS011;74896;42.518;23.712;2024-03-17T06:49:47;12.27;;;6.32;;
84666;SDS011;74896;42.518;23.712;2024-03-17T06:52:13;10.27;;;5.88;;
84666;SDS011;74896;42.518;23.712;2024-03-17T06:54:38;10.55;;;6.82;;
84666;SDS011;74896;42.518;23.712;2024-03-17T06:57:04;11.35;;;7.50;;
84666;SDS011;74896;42.518;23.712;2024-03-17T06:59:32;11.25;;;6.80;;
84666;SDS011;74896;42.518;23.712;2024-03-17T07:01:58;9.10;;;6.13;;
84666;SDS011;74896;42.518;23.712;2024-03-17T07:04:23;11.65;;;7.25;;
84666;SDS011;74896;42.518;23.712;2024-03-17T07:06:49;14.80;;;8.90;;
84666;SDS011;74896;42.518;23.712;2024-03-17T07:09:15;13.75;;;7.78;;
84666;SDS011;74896;42.518;23.712;2024-03-17T07:11:42;12.95;;;8.18;;
84666;SDS011;74896;42.518;23.712;2024-03-17T07:14:08;14.38;;;8.60;;
84666;SDS011;74896;42.518;23.712;2024-03-17T07:16:34;14.85;;;9.30;;
84666;SDS011;74896;42.518;23.712;2024-03-17T07:19:01;16.67;;;8.93;;
84666;SDS011;74896;42.518;23.712;2024-03-17T07:21:27;37.65;;;19.00;;
84666;SDS011;74896;42.518;23.712;2024-03-17T07:23:52;10.43;;;6.63;;
84666;SDS011;74896;42.518;23.712;2024-03-17T07:26:18;10.13;;;6.75;;
84666;SDS011;74896;42.518;23.712;2024-03-17T07:28:43;10.25;;;6.32;;
84666;SDS011;74896;42.518;23.712;2024-03-17T07:31:09;11.65;;;7.47;;
84666;SDS011;74896;42.518;23.712;2024-03-17T07:33:35;9.93;;;6.47;;
84666;SDS011;74896;42.518;23.712;2024-03-17T07:36:01;11.25;;;8.43;;
84666;SDS011;74896;42.518;23.712;2024-03-17T07:38:28;9.52;;;6.50;;
84666;SDS011;74896;42.518;23.712;2024-03-17T07:41:01;10.50;;;6.55;;
84666;SDS011;74896;42.518;23.712;2024-03-17T07:43:28;9.35;;;6.13;;
84666;SDS011;74896;42.518;23.712;2024-03-17T07:45:59;9.45;;;6.03;;
84666;SDS011;74896;42.518;23.712;2024-03-17T07:48:24;8.45;;;5.63;;
84666;SDS011;74896;42.518;23.712;2024-03-17T07:50:56;9.23;;;7.00;;
84666;SDS011;74896;42.518;23.712;2024-03-17T07:53:29;10.85;;;6.25;;
84666;SDS011;74896;42.518;23.712;2024-03-17T07:58:31;10.02;;;5.88;;
84666;SDS011;74896;42.518;23.712;2024-03-17T08:01:01;11.80;;;7.80;;
84666;SDS011;74896;42.518;23.712;2024-03-17T08:03:29;8.48;;;6.03;;
84666;SDS011;74896;42.518;23.712;2024-03-17T08:05:56;8.98;;;5.88;;
84666;SDS011;74896;42.518;23.712;2024-03-17T08:08:22;9.40;;;7.03;;
84666;SDS011;74896;42.518;23.712;2024-03-17T08:10:47;11.30;;;6.50;;
84666;SDS011;74896;42.518;23.712;2024-03-17T08:13:16;8.55;;;6.03;;
84666;SDS011;74896;42.518;23.712;2024-03-17T08:15:43;8.40;;;5.47;;
84666;SDS011;74896;42.518;23.712;2024-03-17T08:18:09;7.97;;;4.63;;
84666;SDS011;74896;42.518;23.712;2024-03-17T08:20:38;9.18;;;5.43;;
84666;SDS011;74896;42.518;23.712;2024-03-17T08:23:11;7.75;;;5.63;;
84666;SDS011;74896;42.518;23.712;2024-03-17T08:25:37;9.30;;;6.38;;
84666;SDS011;74896;42.518;23.712;2024-03-17T08:28:03;9.65;;;7.03;;
84666;SDS011;74896;42.518;23.712;2024-03-17T08:30:29;11.30;;;5.88;;
84666;SDS011;74896;42.518;23.712;2024-03-17T08:32:58;10.82;;;5.97;;
84666;SDS011;74896;42.518;23.712;2024-03-17T08:35:23;11.73;;;5.68;;
84666;SDS011;74896;42.518;23.712;2024-03-17T08:37:49;8.25;;;5.07;;
84666;SDS011;74896;42.518;23.712;2024-03-17T08:40:16;9.73;;;6.18;;
84666;SDS011;74896;42.518;23.712;2024-03-17T08:42:41;10.52;;;6.25;;
84666;SDS011;74896;42.518;23.712;2024-03-17T08:45:06;9.27;;;7.03;;
84666;SDS011;74896;42.518;23.712;2024-03-17T08:47:33;12.55;;;6.60;;
84666;SDS011;74896;42.518;23.712;2024-03-17T08:49:58;10.38;;;5.70;;
84666;SDS011;74896;42.518;23.712;2024-03-17T08:52:29;9.90;;;6.60;;
84666;SDS011;74896;42.518;23.712;2024-03-17T08:54:57;11.60;;;6.88;;
84666;SDS011;74896;42.518;23.712;2024-03-17T08:57:23;11.18;;;6.22;;
84666;SDS011;74896;42.518;23.712;2024-03-17T08:59:49;9.80;;;6.88;;
84666;SDS011;74896;42.518;23.712;2024-03-17T09:02:16;11.82;;;7.53;;
84666;SDS011;74896;42.518;23.712;2024-03-17T09:04:42;8.88;;;4.82;;
84666;SDS011;74896;42.518;23.712;2024-03-17T09:07:07;9.52;;;4.68;;
84666;SDS011;74896;42.518;23.712;2024-03-17T09:09:33;5.20;;;4.25;;
84666;SDS011;74896;42.518;23.712;2024-03-17T09:11:58;6.10;;;3.72;;
84666;SDS011;74896;42.518;23.712;2024-03-17T09:14:24;9.68;;;5.70;;
84666;SDS011;74896;42.518;23.712;2024-03-17T09:16:49;7.22;;;4.57;;
84666;SDS011;74896;42.518;23.712;2024-03-17T09:19:15;6.32;;;4.55;;
84666;SDS011;74896;42.518;23.712;2024-03-17T09:21:40;7.22;;;4.47;;
84666;SDS011;74896;42.518;23.712;2024-03-17T09:24:08;5.63;;;4.40;;
84666;SDS011;74896;42.518;23.712;2024-03-17T09:26:34;6.65;;;4.25;;
84666;SDS011;74896;42.518;23.712;2024-03-17T09:29:00;7.50;;;3.65;;
84666;SDS011;74896;42.518;23.712;2024-03-17T09:31:26;6.78;;;4.15;;
84666;SDS011;74896;42.518;23.712;2024-03-17T09:33:52;5.70;;;3.80;;
84666;SDS011;74896;42.518;23.712;2024-03-17T09:36:18;6.30;;;4.20;;
84666;SDS011;74896;42.518;23.712;2024-03-17T09:38:43;5.78;;;4.35;;
84666;SDS011;74896;42.518;23.712;2024-03-17T09:41:24;7.88;;;4.15;;
84666;SDS011;74896;42.518;23.712;2024-03-17T09:43:52;6.25;;;3.78;;
84666;SDS011;74896;42.518;23.712;2024-03-17T09:46:19;5.95;;;3.85;;
84666;SDS011;74896;42.518;23.712;2024-03-17T09:48:45;5.35;;;3.83;;
84666;SDS011;74896;42.518;23.712;2024-03-17T09:51:21;6.85;;;4.25;;
84666;SDS011;74896;42.518;23.712;2024-03-17T09:53:48;6.93;;;4.40;;
84666;SDS011;74896;42.518;23.712;2024-03-17T09:56:15;4.10;;;3.58;;
84666;SDS011;74896;42.518;23.712;2024-03-17T09:58:43;7.32;;;4.40;;
84666;SDS011;74896;42.518;23.712;2024-03-17T10:01:09;6.03;;;4.15;;
84666;SDS011;74896;42.518;23.712;2024-03-17T10:06:17;6.05;;;3.88;;
84666;SDS011;74896;42.518;23.712;2024-03-17T10:11:19;6.03;;;3.53;;
84666;SDS011;74896;42.518;23.712;2024-03-17T10:13:46;5.40;;;4.10;;
84666;SDS011;74896;42.518;23.712;2024-03-17T10:16:23;5.28;;;3.53;;
84666;SDS011;74896;42.518;23.712;2024-03-17T10:18:51;6.13;;;3.90;;
84666;SDS011;74896;42.518;23.712;2024-03-17T10:24:13;3.65;;;2.80;;
84666;SDS011;74896;42.518;23.712;2024-03-17T10:26:51;6.20;;;3.65;;
84666;SDS011;74896;42.518;23.712;2024-03-17T10:29:30;5.57;;;4.22;;
84666;SDS011;74896;42.518;23.712;2024-03-17T10:31:57;6.90;;;5.03;;
84666;SDS011;74896;42.518;23.712;2024-03-17T10:34:24;8.13;;;5.57;;
84666;SDS011;74896;42.518;23.712;2024-03-17T10:37:05;8.93;;;5.60;;
84666;SDS011;74896;42.518;23.712;2024-03-17T10:39:36;7.57;;;4.75;;
84666;SDS011;74896;42.518;23.712;2024-03-17T10:42:03;8.30;;;4.40;;
84666;SDS011;74896;42.518;23.712;2024-03-17T10:44:30;6.65;;;4.28;;
84666;SDS011;74896;42.518;23.712;2024-03-17T10:46:57;9.63;;;4.35;;
84666;SDS011;74896;42.518;23.712;2024-03-17T10:49:28;6.50;;;3.72;;
84666;SDS011;74896;42.518;23.712;2024-03-17T10:52:01;5.57;;;4.18;;
84666;SDS011;74896;42.518;23.712;2024-03-17T10:54:31;5.03;;;3.67;;
84666;SDS011;74896;42.518;23.712;2024-03-17T10:57:02;5.40;;;3.78;;
84666;SDS011;74896;42.518;23.712;2024-03-17T10:59:51;4.65;;;3.65;;
84666;SDS011;74896;42.518;23.712;2024-03-17T11:02:20;5.60;;;3.97;;
84666;SDS011;74896;42.518;23.712;2024-03-17T11:04:57;5.88;;;3.55;;
84666;SDS011;74896;42.518;23.712;2024-03-17T11:07:27;6.60;;;5.65;;
84666;SDS011;74896;42.518;23.712;2024-03-17T11:09:55;13.60;;;9.63;;
84666;SDS011;74896;42.518;23.712;2024-03-17T11:17:46;5.60;;;3.95;;
84666;SDS011;74896;42.518;23.712;2024-03-17T11:20:15;7.47;;;5.05;;
84666;SDS011;74896;42.518;23.712;2024-03-17T11:22:44;8.00;;;4.10;;
84666;SDS011;74896;42.518;23.712;2024-03-17T11:27:51;5.70;;;4.40;;
84666;SDS011;74896;42.518;23.712;2024-03-17T11:46:53;8.05;;;5.10;;
84666;SDS011;74896;42.518;23.712;2024-03-17T11:51:49;8.57;;;3.95;;
84666;SDS011;74896;42.518;23.712;2024-03-17T11:54:16;6.22;;;4.93;;
84666;SDS011;74896;42.518;23.712;2024-03-17T11:56:49;5.63;;;3.83;;
84666;SDS011;74896;42.518;23.712;2024-03-17T11:59:16;5.90;;;3.90;;
84666;SDS011;74896;42.518;23.712;2024-03-17T12:01:43;6.55;;;4.35;;
84666;SDS011;74896;42.518;23.712;2024-03-17T12:04:10;6.47;;;4.40;;
84666;SDS011;74896;42.518;23.712;2024-03-17T12:06:38;34.17;;;23.60;;
84666;SDS011;74896;42.518;23.712;2024-03-17T12:09:17;10.73;;;9.35;;
84666;SDS011;74896;42.518;23.712;2024-03-17T12:12:02;6.45;;;4.30;;
84666;SDS011;74896;42.518;23.712;2024-03-17T12:14:29;5.28;;;3.75;;
84666;SDS011;74896;42.518;23.712;2024-03-17T12:16:55;5.70;;;3.85;;
84666;SDS011;74896;42.518;23.712;2024-03-17T12:19:23;5.45;;;3.95;;
84666;SDS011;74896;42.518;23.712;2024-03-17T12:21:50;6.28;;;4.13;;
84666;SDS011;74896;42.518;23.712;2024-03-17T12:24:20;7.38;;;4.10;;
84666;SDS011;74896;42.518;23.712;2024-03-17T12:26:47;8.25;;;4.40;;
84666;SDS011;74896;42.518;23.712;2024-03-17T12:32:01;7.60;;;4.43;;
84666;SDS011;74896;42.518;23.712;2024-03-17T12:34:28;6.43;;;5.07;;
84666;SDS011;74896;42.518;23.712;2024-03-17T12:36:55;5.45;;;3.63;;
84666;SDS011;74896;42.518;23.712;2024-03-17T12:39:23;6.13;;;5.53;;
84666;SDS011;74896;42.518;23.712;2024-03-17T12:42:02;6.20;;;4.10;;
84666;SDS011;74896;42.518;23.712;2024-03-17T12:44:35;6.43;;;4.80;;
84666;SDS011;74896;42.518;23.712;2024-03-17T12:47:14;5.45;;;3.85;;
84666;SDS011;74896;42.518;23.712;2024-03-17T12:49:45;5.97;;;4.63;;
84666;SDS011;74896;42.518;23.712;2024-03-17T12:52:21;5.68;;;4.22;;
84666;SDS011;74896;42.518;23.712;2024-03-17T12:54:56;5.40;;;3.95;;
84666;SDS011;74896;42.518;23.712;2024-03-17T12:57:41;5.93;;;4.03;;
84666;SDS011;74896;42.518;23.712;2024-03-17T13:00:26;6.28;;;4.05;;
84666;SDS011;74896;42.518;23.712;2024-03-17T13:02:58;5.88;;;3.97;;
84666;SDS011;74896;42.518;23.712;2024-03-17T13:05:24;7.28;;;4.18;;
84666;SDS011;74896;42.518;23.712;2024-03-17T13:07:49;5.15;;;3.83;;
84666;SDS011;74896;42.518;23.712;2024-03-17T13:10:16;5.28;;;3.25;;
84666;SDS011;74896;42.518;23.712;2024-03-17T13:12:42;5.63;;;4.10;;
84666;SDS011;74896;42.518;23.712;2024-03-17T13:15:09;6.93;;;4.40;;
84666;SDS011;74896;42.518;23.712;2024-03-17T13:17:36;6.57;;;3.92;;
84666;SDS011;74896;42.518;23.712;2024-03-17T13:20:02;6.57;;;4.15;;
84666;SDS011;74896;42.518;23.712;2024-03-17T13:22:29;6.13;;;4.20;;
84666;SDS011;74896;42.518;23.712;2024-03-17T13:24:54;9.02;;;4.60;;
84666;SDS011;74896;42.518;23.712;2024-03-17T13:27:19;5.82;;;4.28;;
84666;SDS011;74896;42.518;23.712;2024-03-17T13:29:48;5.97;;;4.78;;
84666;SDS011;74896;42.518;23.712;2024-03-17T13:32:14;7.57;;;3.80;;
84666;SDS011;74896;42.518;23.712;2024-03-17T13:34:42;6.80;;;4.40;;
84666;SDS011;74896;42.518;23.712;2024-03-17T13:37:07;6.40;;;4.70;;
84666;SDS011;74896;42.518;23.712;2024-03-17T13:39:33;6.65;;;4.38;;
84666;SDS011;74896;42.518;23.712;2024-03-17T13:41:59;6.22;;;4.18;;
84666;SDS011;74896;42.518;23.712;2024-03-17T13:44:27;5.55;;;3.58;;
84666;SDS011;74896;42.518;23.712;2024-03-17T13:46:53;5.72;;;3.80;;
84666;SDS011;74896;42.518;23.712;2024-03-17T13:49:19;5.90;;;4.05;;
84666;SDS011;74896;42.518;23.712;2024-03-17T13:51:44;6.32;;;4.43;;
84666;SDS011;74896;42.518;23.712;2024-03-17T13:54:10;4.40;;;3.33;;
84666;SDS011;74896;42.518;23.712;2024-03-17T13:56:35;7.20;;;4.00;;
84666;SDS011;74896;42.518;23.712;2024-03-17T13:59:00;9.02;;;4.20;;
84666;SDS011;74896;42.518;23.712;2024-03-17T14:01:26;4.97;;;3.50;;
84666;SDS011;74896;42.518;23.712;2024-03-17T14:03:51;4.95;;;3.55;;
84666;SDS011;74896;42.518;23.712;2024-03-17T14:06:18;4.00;;;3.35;;
84666;SDS011;74896;42.518;23.712;2024-03-17T14:08:44;5.82;;;4.25;;
84666;SDS011;74896;42.518;23.712;2024-03-17T14:11:09;6.93;;;4.13;;
84666;SDS011;74896;42.518;23.712;2024-03-17T14:13:35;6.10;;;4.25;;
84666;SDS011;74896;42.518;23.712;2024-03-17T14:16:02;6.93;;;4.15;;
84666;SDS011;74896;42.518;23.712;2024-03-17T14:18:30;8.38;;;5.00;;
84666;SDS011;74896;42.518;23.712;2024-03-17T14:20:57;9.13;;;5.50;;
84666;SDS011;74896;42.518;23.712;2024-03-17T14:23:23;7.85;;;4.38;;
84666;SDS011;74896;42.518;23.712;2024-03-17T14:25:49;6.20;;;5.10;;
84666;SDS011;74896;42.518;23.712;2024-03-17T14:28:15;7.05;;;4.47;;
84666;SDS011;74896;42.518;23.712;2024-03-17T14:30:40;7.15;;;4.50;;
84666;SDS011;74896;42.518;23.712;2024-03-17T14:33:06;8.13;;;4.50;;
84666;SDS011;74896;42.518;23.712;2024-03-17T14:35:33;8.10;;;5.22;;
84666;SDS011;74896;42.518;23.712;2024-03-17T14:37:58;7.25;;;4.60;;
84666;SDS011;74896;42.518;23.712;2024-03-17T14:40:24;7.10;;;4.78;;
84666;SDS011;74896;42.518;23.712;2024-03-17T14:42:53;6.82;;;4.45;;
84666;SDS011;74896;42.518;23.712;2024-03-17T14:45:20;6.93;;;4.03;;
84666;SDS011;74896;42.518;23.712;2024-03-17T14:47:48;8.35;;;4.63;;
84666;SDS011;74896;42.518;23.712;2024-03-17T14:50:14;7.70;;;4.68;;
84666;SDS011;74896;42.518;23.712;2024-03-17T14:52:41;9.18;;;5.18;;
84666;SDS011;74896;42.518;23.712;2024-03-17T14:55:08;9.95;;;5.10;;
84666;SDS011;74896;42.518;23.712;2024-03-17T14:57:40;6.57;;;5.20;;
84666;SDS011;74896;42.518;23.712;2024-03-17T15:00:06;8.75;;;5.32;;
84666;SDS011;74896;42.518;23.712;2024-03-17T15:02:39;7.35;;;5.00;;
84666;SDS011;74896;42.518;23.712;2024-03-17T15:05:06;8.68;;;5.30;;
84666;SDS011;74896;42.518;23.712;2024-03-17T15:07:33;7.75;;;5.00;;
84666;SDS011;74896;42.518;23.712;2024-03-17T15:09:59;7.95;;;4.85;;
84666;SDS011;74896;42.518;23.712;2024-03-17T15:12:24;6.53;;;4.47;;